Nearby METAR Reports

 

KPMD - Palmdale, California, USA
Distance from station: NNE 12mi, 19km
Updated: Thu, 19-Oct-2017 12:53am PDT
Clear
Clear
 Wind from SSW
Wind: SSW 7 mph , 11 km/h
Temperature: 59°F , 15°C
Dew Point: 37°F , 3°C
Humidity: 45%
Barometer: 29.96 inHg , 1014.6 hPa
Clouds: Clear
Visibility: 10 miles , 16 km
2017/10/19 07:53 KPMD 190753Z AUTO 20006KT 10SM CLR 15/03 A2996 RMK AO2 SLP120 T01500028 403170139
KWJF - Lancaster/Fox, California, USA
Distance from station: N 17mi, 27km
Updated: Thu, 19-Oct-2017 12:56am PDT
Clear
Clear
 Wind from WNW
Wind: WNW 9 mph , 15 km/h
Temperature: 66°F , 19°C
Dew Point: 14°F , -10°C
Humidity: 13%
Barometer: 29.95 inHg , 1014.2 hPa
Clouds: Clear
Visibility: 10 miles , 16 km
2017/10/19 07:56 KWJF 190756Z AUTO 29008KT 10SM CLR 19/M10 A2995 RMK AO2 SLP122 T01891100 403280111
 
KMWS - Mount Wilson, California, USA
Distance from station: SSE 18mi, 30km
Updated: Wed, 13-May-2015 6:45am PDT
NOT Current

 Wind from S
Wind: S 3 mph , 6 km/h, Gust: 5 mph , 7 km/h
Temperature: 43°F , 6°C
Dew Point: -0°F , -18°C
Humidity: 16%
2015/05/13 13:45 KMWS 131345Z 18003G04KT 06/M18 RMK SNOW DEPTH 1.00
KWHP - La / Whiteman, California, USA
Distance from station: SW 21mi, 34km
Updated: Wed, 18-Oct-2017 3:55pm PDT
NOT Current
Clear
Clear
 Wind from ESE
Wind: ESE 9 mph , 15 km/h
Temperature: 84°F , 29°C
Dew Point: 43°F , 6°C
Humidity: 23%
Barometer: 29.94 inHg , 1013.9 hPa
Clouds: Clear
Visibility: 10 miles , 16 km
2017/10/18 22:55 KWHP 182255Z 12008KT 10SM SKC 29/06 A2994
 
KBUR - Burbank, California, USA
Distance from station: SSW 22mi, 35km
Updated: Thu, 19-Oct-2017 12:53am PDT
Clear
Clear
 Wind from ENE
Wind: ENE 5 mph , 7 km/h
Temperature: 66°F , 19°C
Dew Point: 54°F , 12°C
Humidity: 64%
Barometer: 29.92 inHg , 1013.2 hPa
Clouds: Clear
Visibility: 10 miles , 16 km
2017/10/19 07:53 KBUR 190753Z AUTO 06004KT 10SM CLR 19/12 A2992 RMK AO2 SLP117 T01940122 403000189
KVNY - Van Nuys, California, USA
Distance from station: SW 25mi, 40km
Updated: Thu, 19-Oct-2017 1:51am PDT
Clear
Clear
 Wind from calm
Wind: Calm
Temperature: 64°F , 18°C
Dew Point: 55°F , 13°C
Humidity: 73%
Barometer: 29.91 inHg , 1012.9 hPa
Clouds: Clear
Visibility: 10 miles , 16 km
2017/10/19 08:51 KVNY 190851Z AUTO 00000KT 10SM CLR 18/13 A2991 RMK AO2 SLP118 T01830128 58002
 
KEDW - Edwards Afb, California, USA
Distance from station: NNE 33mi, 53km
Updated: Thu, 19-Oct-2017 12:58am PDT
Clear
Clear
 Wind from SW
Wind: SW 10 mph , 17 km/h
Temperature: 63°F , 17°C
Dew Point: 18°F , -8°C
Humidity: 17%
Barometer: 29.92 inHg , 1013.2 hPa
Clouds: Clear
Visibility: 10 miles , 16 km
2017/10/19 07:58 KEDW 190758Z AUTO 22009KT 10SM CLR 17/M08 A2992 RMK AO2 SLP113 T01731080 403070140
KSMO - Santa Monica, California, USA
Distance from station: SSW 35mi, 57km
Updated: Thu, 19-Oct-2017 1:51am PDT
Clear
Clear
 Wind from calm
Wind: Calm
Temperature: 63°F , 17°C
Dew Point: 59°F , 15°C
Humidity: 88%
Barometer: 29.91 inHg , 1012.9 hPa
Clouds: Clear
Visibility: 9 miles , 14 km
2017/10/19 08:51 KSMO 190851Z AUTO 00000KT 9SM CLR 17/15 A2991 RMK AO2 SLP126 T01720150 56002
 
KLAX - Los Angeles, California, USA
Distance from station: SSW 39mi, 63km
Updated: Thu, 19-Oct-2017 12:53am PDT
Clear
Clear
 Wind from E
Wind: E 3 mph , 6 km/h
Temperature: 64°F , 18°C
Dew Point: 61°F , 16°C
Humidity: 88%
Barometer: 29.91 inHg , 1012.9 hPa
Clouds: Clear
Visibility: 10 miles , 16 km
2017/10/19 07:53 KLAX 190753Z 10003KT 10SM CLR 18/16 A2991 RMK AO2 SLP124 T01830161 402670183
KMHV - Mojave, California, USA
Distance from station: N 41mi, 66km
Updated: Thu, 19-Oct-2017 1:20am PDT
Clear
Clear
 Wind from NW
Wind: NW 14 mph , 22 km/h, Gust: 21 mph , 33 km/h
Temperature: 70°F , 21°C
Dew Point: 16°F , -9°C
Humidity: 12%
Barometer: 29.93 inHg , 1013.5 hPa
Clouds: Clear
Visibility: 10 miles , 16 km
2017/10/19 08:20 KMHV 190820Z AUTO 31012G18KT 10SM CLR 21/M09 A2993 RMK A01
 
KFUL - Fullerton, California, USA
Distance from station: SSE 44mi, 70km
Updated: Thu, 19-Oct-2017 12:53am PDT
Mist, Overcast
Mist, Overcast
 Wind from calm
Wind: Calm
Temperature: 68°F , 20°C
Dew Point: 66°F , 19°C
Humidity: 94%
Barometer: 29.90 inHg , 1012.5 hPa
Summary: Mist
Clouds: Overcast
Visibility: 6 miles , 10 km
Cloud details: Mostly cloudy 1000 ft
Overcast 1800 ft
2017/10/19 07:53 KFUL 190753Z AUTO 00000KT 6SM BR BKN010 OVC018 20/19 A2990 RMK AO2 SLP124 T02000189 402940172
KONT - Ontario, California, USA
Distance from station: SE 45mi, 72km
Updated: Thu, 19-Oct-2017 12:53am PDT
Clear
Clear
 Wind from calm
Wind: Calm
Temperature: 66°F , 19°C
Dew Point: 54°F , 12°C
Humidity: 64%
Barometer: 29.92 inHg , 1013.2 hPa
Clouds: Clear
Visibility: 10 miles , 16 km
2017/10/19 07:53 KONT 190753Z 00000KT 10SM CLR 19/12 A2992 RMK AO2 SLP114 T01890117 403220189
 
KLGB - Long Beach, California, USA
Distance from station: S 46mi, 74km
Updated: Thu, 19-Oct-2017 12:53am PDT
Clear
Clear
 Wind from calm
Wind: Calm
Temperature: 66°F , 19°C
Dew Point: 63°F , 17°C
Humidity: 88%
Barometer: 29.91 inHg , 1012.9 hPa
Clouds: Clear
Visibility: 8 miles , 13 km
2017/10/19 07:53 KLGB 190753Z AUTO 00000KT 8SM CLR 19/17 A2991 RMK AO2 SLP126 T01940172 402830183
KVCV - Victorville, California, USA
Distance from station: E 46mi, 74km
Updated: Thu, 19-Oct-2017 1:35am PDT
Clear
Clear
 Wind from calm
Wind: Calm
Temperature: 61°F , 16°C
Dew Point: 23°F , -5°C
Humidity: 23%
Barometer: 29.98 inHg , 1015.2 hPa
Clouds: Clear
Visibility: 10 miles , 16 km
2017/10/19 08:35 KVCV 190835Z AUTO 00000KT 10SM CLR 16/M05 A2998 RMK AO2
 
KTSP - Tehachapi, California, USA
Distance from station: NNW 48mi, 77km
Updated: Thu, 19-Oct-2017 1:35am PDT
Clear
Clear
 Wind from WNW
Wind: WNW 3 mph , 6 km/h
Temperature: 50°F , 10°C
Dew Point: 27°F , -3°C
Humidity: 40%
Barometer: 30.07 inHg , 1018.3 hPa
Clouds: Clear
Visibility: 7 miles , 11 km
2017/10/19 08:35 KTSP 190835Z AUTO 29003KT 7SM CLR 10/M03 A3007 RMK AO2